Terminal Aerodrome Forecast
Issued by NWS Sioux Falls, SD

Home | Current Version | Previous Version | Text Only | Print | Product List | Glossary Off
Versions: 1 2 3 4 5 6 7 8 9 10 11 12 13 14

000
FTUS43 KFSD 301128
TAFHON
TAF
KHON 301128Z 3012/0112 16008KT P6SM SKC
     FM301500 17014G20KT P6SM SCT200
     FM010400 15007KT P6SM BKN100
     FM010900 30005KT P6SM BKN060=

USA.gov is the U.S. government's official web portal to all federal, state and local government web resources and services.